Time,TemperatureF,DewpointF,PressureIn,WindDirection,WindDirectionDegrees,WindSpeedMPH,WindSpeedGustMPH,Humidity,HourlyPrecipIn,Conditions,Clouds,dailyrainin,SoftwareType,DateUTC
2013-10-18 00:07:00,49.8,47.3,29.58,WSW,247,7.4,-999.0,91,-99.99,,,0.00,Acu-Link.com,2013-10-18 04:07:00,
2013-10-18 00:22:00,49.6,47.1,29.59,WSW,247,5.1,-999.0,91,-99.99,,,0.00,Acu-Link.com,2013-10-18 04:22:00,
2013-10-18 00:37:00,49.1,46.9,29.59,SSW,202,11.0,-999.0,92,-99.99,,,0.00,Acu-Link.com,2013-10-18 04:37:00,
2013-10-18 00:52:00,48.9,46.7,29.59,South,180,7.8,-999.0,92,-99.99,,,0.01,Acu-Link.com,2013-10-18 04:52:00,
2013-10-18 01:08:00,48.9,47.0,29.59,SSW,202,8.3,-999.0,93,-99.99,,,0.02,Acu-Link.com,2013-10-18 05:08:00,
2013-10-18 01:23:00,48.9,47.0,29.59,SSW,202,5.8,-999.0,93,-99.99,,,0.02,Acu-Link.com,2013-10-18 05:23:00,
2013-10-18 01:39:00,48.9,46.7,29.59,SSW,202,5.8,-999.0,92,-99.99,,,0.02,Acu-Link.com,2013-10-18 05:39:00,
2013-10-18 01:54:00,48.9,46.7,29.59,West,270,6.3,-999.0,92,-99.99,,,0.02,Acu-Link.com,2013-10-18 05:54:00,
2013-10-18 02:09:00,48.9,46.7,29.59,SSW,202,4.7,-999.0,92,-99.99,,,0.02,Acu-Link.com,2013-10-18 06:09:00,
2013-10-18 02:24:00,48.6,46.1,29.60,SW,225,7.4,-999.0,91,-99.99,,,0.02,Acu-Link.com,2013-10-18 06:24:00,
2013-10-18 02:39:00,48.6,46.1,29.60,SW,225,6.3,-999.0,91,-99.99,,,0.02,Acu-Link.com,2013-10-18 06:39:00,
2013-10-18 02:54:00,48.4,46.2,29.60,SSW,202,4.3,-999.0,92,-99.99,,,0.02,Acu-Link.com,2013-10-18 06:54:00,
2013-10-18 03:10:00,48.0,46.1,29.60,SW,225,4.7,-999.0,93,-99.99,,,0.05,Acu-Link.com,2013-10-18 07:10:00,
2013-10-18 03:25:00,48.0,45.8,29.60,West,270,6.3,-999.0,92,-99.99,,,0.05,Acu-Link.com,2013-10-18 07:25:00,
2013-10-18 03:40:00,48.0,45.8,29.60,SW,225,6.3,-999.0,92,-99.99,,,0.05,Acu-Link.com,2013-10-18 07:40:00,
2013-10-18 03:55:00,47.8,45.6,29.60,SSW,202,6.3,-999.0,92,-99.99,,,0.05,Acu-Link.com,2013-10-18 07:55:00,
2013-10-18 04:10:00,47.8,45.9,29.61,West,270,5.1,-999.0,93,-99.99,,,0.06,Acu-Link.com,2013-10-18 08:10:00,
2013-10-18 04:25:00,47.7,45.7,29.60,West,270,3.1,-999.0,93,-99.99,,,0.07,Acu-Link.com,2013-10-18 08:25:00,
2013-10-18 04:41:00,47.5,46.1,29.61,West,270,3.8,-999.0,95,-99.99,,,0.09,Acu-Link.com,2013-10-18 08:41:00,
2013-10-18 04:56:00,47.3,45.9,29.61,SW,225,4.3,-999.0,95,-99.99,,,0.13,Acu-Link.com,2013-10-18 08:56:00,
2013-10-18 05:11:00,47.1,45.8,29.62,SSW,202,4.7,-999.0,95,-99.99,,,0.14,Acu-Link.com,2013-10-18 09:11:00,
2013-10-18 05:26:00,47.1,45.8,29.63,West,270,5.8,-999.0,95,-99.99,,,0.14,Acu-Link.com,2013-10-18 09:26:00,
2013-10-18 05:42:00,47.1,45.8,29.63,SSW,202,3.8,-999.0,95,-99.99,,,0.15,Acu-Link.com,2013-10-18 09:42:00,
2013-10-18 05:57:00,47.3,46.2,29.63,South,180,4.3,-999.0,96,-99.99,,,0.15,Acu-Link.com,2013-10-18 09:57:00,
2013-10-18 06:12:00,47.5,46.1,29.64,SW,225,5.1,-999.0,95,-99.99,,,0.17,Acu-Link.com,2013-10-18 10:12:00,
2013-10-18 06:28:00,47.5,45.8,29.64,WNW,292,4.7,-999.0,94,-99.99,,,0.17,Acu-Link.com,2013-10-18 10:28:00,
2013-10-18 06:44:00,47.5,45.3,29.64,SW,225,10.3,-999.0,92,-99.99,,,0.17,Acu-Link.com,2013-10-18 10:44:00,
2013-10-18 06:59:00,47.1,44.9,29.65,NW,315,6.7,-999.0,92,-99.99,,,0.17,Acu-Link.com,2013-10-18 10:59:00,
2013-10-18 07:14:00,47.1,44.9,29.65,West,270,7.4,-999.0,92,-99.99,,,0.17,Acu-Link.com,2013-10-18 11:14:00,
2013-10-18 07:30:00,47.1,44.6,29.67,SW,225,4.7,-999.0,91,-99.99,,,0.17,Acu-Link.com,2013-10-18 11:30:00,
2013-10-18 07:46:00,47.1,44.3,29.67,West,270,4.7,-999.0,90,-99.99,,,0.17,Acu-Link.com,2013-10-18 11:46:00,
2013-10-18 08:02:00,47.1,44.6,29.68,South,180,4.3,-999.0,91,-99.99,,,0.17,Acu-Link.com,2013-10-18 12:02:00,
2013-10-18 08:17:00,46.9,43.0,29.68,WSW,247,9.8,-999.0,86,-99.99,,,0.17,Acu-Link.com,2013-10-18 12:17:00,
2013-10-18 08:33:00,46.6,42.3,29.69,SW,225,5.8,-999.0,85,-99.99,,,0.17,Acu-Link.com,2013-10-18 12:33:00,
2013-10-18 08:49:00,46.6,42.0,29.70,SW,225,4.7,-999.0,84,-99.99,,,0.17,Acu-Link.com,2013-10-18 12:49:00,
2013-10-18 09:05:00,46.9,42.4,29.71,South,180,8.9,-999.0,84,-99.99,,,0.17,Acu-Link.com,2013-10-18 13:05:00,
2013-10-18 09:21:00,46.9,42.7,29.72,West,270,5.1,-999.0,85,-99.99,,,0.17,Acu-Link.com,2013-10-18 13:21:00,
2013-10-18 09:36:00,46.6,41.1,29.72,West,270,8.9,-999.0,81,-99.99,,,0.17,Acu-Link.com,2013-10-18 13:36:00,
2013-10-18 09:52:00,46.9,40.4,29.74,West,270,5.8,-999.0,78,-99.99,,,0.17,Acu-Link.com,2013-10-18 13:52:00,
2013-10-18 10:07:00,47.1,38.9,29.75,WNW,292,8.3,-999.0,73,-99.99,,,0.17,Acu-Link.com,2013-10-18 14:07:00,
2013-10-18 10:23:00,47.7,39.1,29.74,West,270,6.3,-999.0,72,-99.99,,,0.17,Acu-Link.com,2013-10-18 14:23:00,
2013-10-18 10:38:00,48.2,39.2,29.75,SW,225,6.7,-999.0,71,-99.99,,,0.17,Acu-Link.com,2013-10-18 14:38:00,
2013-10-18 10:53:00,48.9,39.6,29.75,SW,225,12.5,-999.0,70,-99.99,,,0.17,Acu-Link.com,2013-10-18 14:53:00,
2013-10-18 11:08:00,49.1,38.2,29.75,West,270,9.8,-999.0,66,-99.99,,,0.17,Acu-Link.com,2013-10-18 15:08:00,
2013-10-18 11:24:00,48.9,38.1,29.75,West,270,8.3,-999.0,66,-99.99,,,0.17,Acu-Link.com,2013-10-18 15:24:00,
2013-10-18 11:40:00,49.6,39.1,29.75,SSW,202,5.8,-999.0,67,-99.99,,,0.17,Acu-Link.com,2013-10-18 15:40:00,
2013-10-18 11:55:00,49.8,38.9,29.75,West,270,4.7,-999.0,66,-99.99,,,0.17,Acu-Link.com,2013-10-18 15:55:00,
2013-10-18 12:10:00,50.4,39.0,29.75,SSW,202,11.4,-999.0,65,-99.99,,,0.17,Acu-Link.com,2013-10-18 16:10:00,
2013-10-18 12:26:00,50.5,40.0,29.76,SW,225,12.5,-999.0,67,-99.99,,,0.17,Acu-Link.com,2013-10-18 16:26:00,
2013-10-18 12:41:00,50.7,40.2,29.75,WSW,247,8.9,-999.0,67,-99.99,,,0.17,Acu-Link.com,2013-10-18 16:41:00,
2013-10-18 12:56:00,51.8,41.2,29.75,South,180,11.9,-999.0,67,-99.99,,,0.17,Acu-Link.com,2013-10-18 16:56:00,
2013-10-18 13:11:00,52.2,41.2,29.75,SW,225,6.3,-999.0,66,-99.99,,,0.17,Acu-Link.com,2013-10-18 17:11:00,
2013-10-18 13:27:00,52.7,41.7,29.75,SSW,202,9.8,-999.0,66,-99.99,,,0.17,Acu-Link.com,2013-10-18 17:27:00,
2013-10-18 13:42:00,52.2,41.5,29.74,West,270,7.8,-999.0,67,-99.99,,,0.17,Acu-Link.com,2013-10-18 17:42:00,
2013-10-18 14:00:00,55.2,43.3,29.74,West,270,6.7,-999.0,64,-99.99,,,0.17,Acu-Link.com,2013-10-18 18:00:00,
2013-10-18 14:16:00,52.5,42.3,29.74,WSW,247,8.3,-999.0,68,-99.99,,,0.17,Acu-Link.com,2013-10-18 18:16:00,
2013-10-18 14:31:00,52.7,43.9,29.74,SSW,202,6.7,-999.0,72,-99.99,,,0.17,Acu-Link.com,2013-10-18 18:31:00,
2013-10-18 14:46:00,55.9,43.1,29.74,SW,225,11.9,-999.0,62,-99.99,,,0.17,Acu-Link.com,2013-10-18 18:46:00,
2013-10-18 15:02:00,54.5,40.5,29.74,SSW,202,9.8,-999.0,59,-99.99,,,0.17,Acu-Link.com,2013-10-18 19:02:00,
2013-10-18 15:17:00,56.5,42.3,29.74,West,270,11.9,-999.0,59,-99.99,,,0.17,Acu-Link.com,2013-10-18 19:17:00,
2013-10-18 15:32:00,57.2,43.0,29.75,SW,225,7.8,-999.0,59,-99.99,,,0.17,Acu-Link.com,2013-10-18 19:32:00,
2013-10-18 15:47:00,55.2,41.6,29.75,WSW,247,6.3,-999.0,60,-99.99,,,0.17,Acu-Link.com,2013-10-18 19:47:00,
2013-10-18 16:02:00,54.9,41.7,29.75,West,270,8.3,-999.0,61,-99.99,,,0.17,Acu-Link.com,2013-10-18 20:02:00,
2013-10-18 16:18:00,54.0,42.1,29.74,SW,225,5.1,-999.0,64,-99.99,,,0.17,Acu-Link.com,2013-10-18 20:18:00,
2013-10-18 16:33:00,53.8,41.9,29.74,West,270,6.3,-999.0,64,-99.99,,,0.17,Acu-Link.com,2013-10-18 20:33:00,
2013-10-18 16:48:00,53.1,42.0,29.75,West,270,4.7,-999.0,66,-99.99,,,0.17,Acu-Link.com,2013-10-18 20:48:00,
2013-10-18 17:03:00,52.2,42.3,29.75,SW,225,8.3,-999.0,69,-99.99,,,0.17,Acu-Link.com,2013-10-18 21:03:00,
2013-10-18 17:19:00,51.6,42.2,29.75,SW,225,5.8,-999.0,70,-99.99,,,0.17,Acu-Link.com,2013-10-18 21:19:00,
2013-10-18 17:34:00,51.8,43.1,29.75,SW,225,5.1,-999.0,72,-99.99,,,0.17,Acu-Link.com,2013-10-18 21:34:00,
2013-10-18 17:50:00,51.8,43.4,29.75,SW,225,5.8,-999.0,73,-99.99,,,0.17,Acu-Link.com,2013-10-18 21:50:00,
2013-10-18 18:05:00,50.9,43.6,29.75,West,270,0.0,-999.0,76,-99.99,,,0.17,Acu-Link.com,2013-10-18 22:05:00,
2013-10-18 18:21:00,50.2,43.9,29.75,SSE,157,0.0,-999.0,79,-99.99,,,0.17,Acu-Link.com,2013-10-18 22:21:00,
2013-10-18 18:36:00,49.1,43.5,29.75,SSE,157,0.0,-999.0,81,-99.99,,,0.17,Acu-Link.com,2013-10-18 22:36:00,
2013-10-18 18:52:00,48.6,43.9,29.75,SE,135,0.0,-999.0,84,-99.99,,,0.17,Acu-Link.com,2013-10-18 22:52:00,
2013-10-18 19:08:00,48.2,43.9,29.75,SSE,157,0.0,-999.0,85,-99.99,,,0.17,Acu-Link.com,2013-10-18 23:08:00,
2013-10-18 19:24:00,47.8,43.6,29.76,SE,135,0.0,-999.0,85,-99.99,,,0.17,Acu-Link.com,2013-10-18 23:24:00,
2013-10-18 19:39:00,47.5,43.5,29.76,SSE,157,1.1,-999.0,86,-99.99,,,0.17,Acu-Link.com,2013-10-18 23:39:00,
2013-10-18 19:54:00,47.3,43.0,29.76,ESE,112,0.0,-999.0,85,-99.99,,,0.17,Acu-Link.com,2013-10-18 23:54:00,
2013-10-18 20:09:00,47.7,42.4,29.76,South,180,0.0,-999.0,82,-99.99,,,0.17,Acu-Link.com,2013-10-19 00:09:00,
2013-10-18 20:25:00,47.7,42.1,29.76,SSE,157,0.0,-999.0,81,-99.99,,,0.17,Acu-Link.com,2013-10-19 00:25:00,
2013-10-18 20:40:00,47.3,41.1,29.75,SSE,157,0.0,-999.0,79,-99.99,,,0.17,Acu-Link.com,2013-10-19 00:40:00,
2013-10-18 20:55:00,47.3,40.5,29.76,South,180,0.0,-999.0,77,-99.99,,,0.17,Acu-Link.com,2013-10-19 00:55:00,
2013-10-18 21:10:00,46.8,39.9,29.76,ESE,112,0.0,-999.0,77,-99.99,,,0.17,Acu-Link.com,2013-10-19 01:10:00,
2013-10-18 21:26:00,46.6,39.4,29.76,East,90,0.0,-999.0,76,-99.99,,,0.17,Acu-Link.com,2013-10-19 01:26:00,
2013-10-18 21:41:00,46.8,39.3,29.76,SSE,157,0.0,-999.0,75,-99.99,,,0.17,Acu-Link.com,2013-10-19 01:41:00,
2013-10-18 21:56:00,46.8,39.3,29.76,ENE,67,0.0,-999.0,75,-99.99,,,0.17,Acu-Link.com,2013-10-19 01:56:00,
2013-10-18 22:11:00,46.8,39.3,29.77,South,180,0.0,-999.0,75,-99.99,,,0.17,Acu-Link.com,2013-10-19 02:11:00,
2013-10-18 22:27:00,46.8,39.3,29.77,SSE,157,0.0,-999.0,75,-99.99,,,0.17,Acu-Link.com,2013-10-19 02:27:00,
2013-10-18 22:42:00,46.8,39.3,29.77,SW,225,4.7,-999.0,75,-99.99,,,0.17,Acu-Link.com,2013-10-19 02:42:00,
2013-10-18 22:57:00,47.1,39.6,29.77,SSE,157,1.6,-999.0,75,-99.99,,,0.17,Acu-Link.com,2013-10-19 02:57:00,
2013-10-18 23:12:00,48.4,40.1,29.76,ESE,112,0.0,-999.0,73,-99.99,,,0.17,Acu-Link.com,2013-10-19 03:12:00,
2013-10-18 23:27:00,48.4,40.5,29.76,SSW,202,0.0,-999.0,74,-99.99,,,0.17,Acu-Link.com,2013-10-19 03:27:00,
2013-10-18 23:43:00,48.7,40.5,29.76,SE,135,0.0,-999.0,73,-99.99,,,0.17,Acu-Link.com,2013-10-19 03:43:00,
2013-10-18 23:58:00,48.7,40.5,29.76,ESE,112,0.0,-999.0,73,-99.99,,,0.17,Acu-Link.com,2013-10-19 03:58:00,